sensor_id;sensor_type;location;lat;lon;timestamp;pressure;altitude;pressure_sealevel;temperature;humidity
40117;BME280;25829;50.228;18.936;2023-05-25T00:01:01;99071.75;;;11.99;69.57
40117;BME280;25829;50.228;18.936;2023-05-25T00:04:02;99076.84;;;12.01;69.46
40117;BME280;25829;50.228;18.936;2023-05-25T00:07:05;99074.81;;;11.96;69.36
40117;BME280;25829;50.228;18.936;2023-05-25T00:10:09;99083.81;;;12.02;69.29
40117;BME280;25829;50.228;18.936;2023-05-25T00:13:16;99077.03;;;11.99;69.00
40117;BME280;25829;50.228;18.936;2023-05-25T00:16:17;99070.94;;;11.92;69.17
40117;BME280;25829;50.228;18.936;2023-05-25T00:19:17;99079.88;;;11.85;69.40
40117;BME280;25829;50.228;18.936;2023-05-25T00:22:21;99087.56;;;11.80;69.42
40117;BME280;25829;50.228;18.936;2023-05-25T00:25:24;99087.56;;;11.80;69.58
40117;BME280;25829;50.228;18.936;2023-05-25T00:28:25;99091.25;;;11.85;69.58
40117;BME280;25829;50.228;18.936;2023-05-25T00:31:26;99085.31;;;11.76;69.35
40117;BME280;25829;50.228;18.936;2023-05-25T00:34:27;99083.28;;;11.72;69.51
40117;BME280;25829;50.228;18.936;2023-05-25T00:37:34;99082.06;;;11.68;69.85
40117;BME280;25829;50.228;18.936;2023-05-25T00:40:39;99077.19;;;11.71;69.28
40117;BME280;25829;50.228;18.936;2023-05-25T00:43:40;99074.34;;;11.80;69.07
40117;BME280;25829;50.228;18.936;2023-05-25T00:46:46;99077.22;;;11.85;69.07
40117;BME280;25829;50.228;18.936;2023-05-25T00:49:53;99072.78;;;11.92;69.12
40117;BME280;25829;50.228;18.936;2023-05-25T00:52:54;99072.16;;;11.96;68.99
40117;BME280;25829;50.228;18.936;2023-05-25T00:56:18;99079.50;;;12.01;69.10
40117;BME280;25829;50.228;18.936;2023-05-25T00:59:39;99085.03;;;12.06;68.79
40117;BME280;25829;50.228;18.936;2023-05-25T01:02:47;99082.78;;;12.10;68.95
40117;BME280;25829;50.228;18.936;2023-05-25T01:05:54;99082.78;;;12.16;68.74
40117;BME280;25829;50.228;18.936;2023-05-25T01:09:02;99085.22;;;12.18;68.57
40117;BME280;25829;50.228;18.936;2023-05-25T01:12:10;99082.59;;;12.18;68.51
40117;BME280;25829;50.228;18.936;2023-05-25T01:15:13;99070.16;;;12.18;68.36
40117;BME280;25829;50.228;18.936;2023-05-25T01:18:14;99077.69;;;12.21;68.36
40117;BME280;25829;50.228;18.936;2023-05-25T01:27:58;99089.28;;;12.07;68.43
40117;BME280;25829;50.228;18.936;2023-05-25T01:31:03;99094.53;;;11.94;68.41
40117;BME280;25829;50.228;18.936;2023-05-25T01:34:06;99092.28;;;11.84;68.99
40117;BME280;25829;50.228;18.936;2023-05-25T01:37:07;99087.78;;;11.71;68.98
40117;BME280;25829;50.228;18.936;2023-05-25T01:40:13;99086.69;;;11.59;69.14
40117;BME280;25829;50.228;18.936;2023-05-25T01:43:21;99091.97;;;11.52;69.39
40117;BME280;25829;50.228;18.936;2023-05-25T01:46:33;99090.94;;;11.47;69.50
40117;BME280;25829;50.228;18.936;2023-05-25T01:49:56;99091.97;;;11.46;69.56
40117;BME280;25829;50.228;18.936;2023-05-25T01:53:05;99091.97;;;11.46;69.54
40117;BME280;25829;50.228;18.936;2023-05-25T01:56:14;99087.91;;;11.50;69.42
40117;BME280;25829;50.228;18.936;2023-05-25T01:59:19;99086.91;;;11.58;68.95
40117;BME280;25829;50.228;18.936;2023-05-25T02:02:20;99089.31;;;11.52;69.10
40117;BME280;25829;50.228;18.936;2023-05-25T02:05:21;99088.06;;;11.42;69.48
40117;BME280;25829;50.228;18.936;2023-05-25T02:08:22;99086.00;;;11.30;69.86
40117;BME280;25829;50.228;18.936;2023-05-25T02:11:28;99080.47;;;11.19;69.65
40117;BME280;25829;50.228;18.936;2023-05-25T02:14:31;99075.81;;;11.27;69.58
40117;BME280;25829;50.228;18.936;2023-05-25T02:17:32;99079.69;;;11.32;69.53
40117;BME280;25829;50.228;18.936;2023-05-25T02:20:35;99087.59;;;11.25;69.69
40117;BME280;25829;50.228;18.936;2023-05-25T02:23:36;99086.56;;;11.19;70.22
40117;BME280;25829;50.228;18.936;2023-05-25T02:26:40;99079.25;;;11.15;70.06
40117;BME280;25829;50.228;18.936;2023-05-25T02:29:42;99075.16;;;11.12;70.21
40117;BME280;25829;50.228;18.936;2023-05-25T02:32:45;99080.25;;;11.20;70.28
40117;BME280;25829;50.228;18.936;2023-05-25T02:35:49;99086.00;;;11.30;70.24
40117;BME280;25829;50.228;18.936;2023-05-25T02:38:55;99084.00;;;11.33;69.95
40117;BME280;25829;50.228;18.936;2023-05-25T02:41:56;99086.78;;;11.24;69.88
40117;BME280;25829;50.228;18.936;2023-05-25T02:44:57;99093.69;;;11.19;70.14
40117;BME280;25829;50.228;18.936;2023-05-25T02:47:58;99084.94;;;11.18;70.05
40117;BME280;25829;50.228;18.936;2023-05-25T02:50:59;99089.63;;;11.23;70.23
40117;BME280;25829;50.228;18.936;2023-05-25T02:53:59;99082.13;;;11.26;69.96
40117;BME280;25829;50.228;18.936;2023-05-25T02:57:06;99078.69;;;11.33;69.93
40117;BME280;25829;50.228;18.936;2023-05-25T03:00:08;99077.28;;;11.37;69.93
40117;BME280;25829;50.228;18.936;2023-05-25T03:03:18;99078.53;;;11.41;69.46
40117;BME280;25829;50.228;18.936;2023-05-25T03:06:18;99079.16;;;11.43;69.36
40117;BME280;25829;50.228;18.936;2023-05-25T03:09:26;99075.50;;;11.50;69.56
40117;BME280;25829;50.228;18.936;2023-05-25T03:12:27;99080.41;;;11.53;69.45
40117;BME280;25829;50.228;18.936;2023-05-25T03:15:28;99079.00;;;11.58;69.51
40117;BME280;25829;50.228;18.936;2023-05-25T03:18:29;99082.03;;;11.61;69.36
40117;BME280;25829;50.228;18.936;2023-05-25T03:21:40;99080.44;;;11.60;69.26
40117;BME280;25829;50.228;18.936;2023-05-25T03:24:41;99081.41;;;11.59;69.47
40117;BME280;25829;50.228;18.936;2023-05-25T03:27:42;99083.84;;;11.54;69.14
40117;BME280;25829;50.228;18.936;2023-05-25T03:30:43;99075.91;;;11.47;69.22
40117;BME280;25829;50.228;18.936;2023-05-25T03:33:44;99082.00;;;11.48;69.55
40117;BME280;25829;50.228;18.936;2023-05-25T03:36:45;99085.25;;;11.43;69.79
40117;BME280;25829;50.228;18.936;2023-05-25T03:39:49;99095.03;;;11.49;69.46
40117;BME280;25829;50.228;18.936;2023-05-25T03:42:49;99084.84;;;11.46;69.46
40117;BME280;25829;50.228;18.936;2023-05-25T03:45:50;99092.78;;;11.46;69.80
40117;BME280;25829;50.228;18.936;2023-05-25T03:48:52;99097.44;;;11.44;69.49
40117;BME280;25829;50.228;18.936;2023-05-25T03:51:53;99097.00;;;11.41;69.54
40117;BME280;25829;50.228;18.936;2023-05-25T03:54:54;99105.16;;;11.39;69.78
40117;BME280;25829;50.228;18.936;2023-05-25T03:57:55;99107.59;;;11.41;69.80
40117;BME280;25829;50.228;18.936;2023-05-25T04:00:56;99110.81;;;11.36;69.81
40117;BME280;25829;50.228;18.936;2023-05-25T04:03:56;99118.31;;;11.33;69.83
40117;BME280;25829;50.228;18.936;2023-05-25T04:06:57;99110.78;;;11.29;70.06
40117;BME280;25829;50.228;18.936;2023-05-25T04:10:04;99117.69;;;11.30;70.30
40117;BME280;25829;50.228;18.936;2023-05-25T04:13:05;99111.59;;;11.30;69.96
40117;BME280;25829;50.228;18.936;2023-05-25T04:16:10;99109.59;;;11.32;70.03
40117;BME280;25829;50.228;18.936;2023-05-25T04:19:12;99123.22;;;11.36;70.06
40117;BME280;25829;50.228;18.936;2023-05-25T04:22:19;99120.78;;;11.41;69.97
40117;BME280;25829;50.228;18.936;2023-05-25T04:25:27;99130.97;;;11.44;70.04
40117;BME280;25829;50.228;18.936;2023-05-25T04:28:31;99123.47;;;11.47;69.87
40117;BME280;25829;50.228;18.936;2023-05-25T04:31:49;99125.50;;;11.52;69.96
40117;BME280;25829;50.228;18.936;2023-05-25T04:35:23;99136.47;;;11.49;69.61
40117;BME280;25829;50.228;18.936;2023-05-25T04:38:24;99127.94;;;11.47;70.11
40117;BME280;25829;50.228;18.936;2023-05-25T04:44:47;99122.03;;;11.45;69.71
40117;BME280;25829;50.228;18.936;2023-05-25T04:47:48;99132.41;;;11.46;69.83
40117;BME280;25829;50.228;18.936;2023-05-25T04:50:50;99129.97;;;11.51;70.16
40117;BME280;25829;50.228;18.936;2023-05-25T04:53:58;99139.38;;;11.61;70.18
40117;BME280;25829;50.228;18.936;2023-05-25T04:57:02;99135.94;;;11.60;69.70
40117;BME280;25829;50.228;18.936;2023-05-25T05:00:07;99139.34;;;11.54;69.82
40117;BME280;25829;50.228;18.936;2023-05-25T05:03:16;99138.13;;;11.50;69.83
40117;BME280;25829;50.228;18.936;2023-05-25T05:06:28;99135.09;;;11.53;69.95
40117;BME280;25829;50.228;18.936;2023-05-25T05:09:29;99147.47;;;11.52;69.93
40117;BME280;25829;50.228;18.936;2023-05-25T05:12:32;99159.28;;;11.57;69.93
40117;BME280;25829;50.228;18.936;2023-05-25T05:15:35;99158.44;;;11.49;69.53
40117;BME280;25829;50.228;18.936;2023-05-25T05:18:36;99150.09;;;11.52;70.02
40117;BME280;25829;50.228;18.936;2023-05-25T05:21:42;99154.22;;;11.62;69.67
40117;BME280;25829;50.228;18.936;2023-05-25T05:24:45;99158.91;;;11.66;69.63
40117;BME280;25829;50.228;18.936;2023-05-25T05:27:54;99160.31;;;11.62;69.21
40117;BME280;25829;50.228;18.936;2023-05-25T05:31:32;99167.66;;;11.67;69.58
40117;BME280;25829;50.228;18.936;2023-05-25T05:34:34;99161.16;;;11.69;69.20
40117;BME280;25829;50.228;18.936;2023-05-25T05:37:40;99165.25;;;11.72;69.30
40117;BME280;25829;50.228;18.936;2023-05-25T05:41:01;99161.19;;;11.76;69.16
40117;BME280;25829;50.228;18.936;2023-05-25T05:44:03;99166.69;;;11.74;69.37
40117;BME280;25829;50.228;18.936;2023-05-25T05:47:04;99166.28;;;11.77;69.48
40117;BME280;25829;50.228;18.936;2023-05-25T05:50:09;99173.63;;;11.89;69.40
40117;BME280;25829;50.228;18.936;2023-05-25T05:53:13;99165.31;;;11.92;69.59
40117;BME280;25829;50.228;18.936;2023-05-25T05:56:18;99171.19;;;11.94;69.33
40117;BME280;25829;50.228;18.936;2023-05-25T05:59:21;99174.66;;;11.88;69.28
40117;BME280;25829;50.228;18.936;2023-05-25T06:02:46;99172.03;;;11.88;69.81
40117;BME280;25829;50.228;18.936;2023-05-25T06:05:52;99180.38;;;11.91;69.83
40117;BME280;25829;50.228;18.936;2023-05-25T06:09:00;99183.44;;;11.95;69.98
40117;BME280;25829;50.228;18.936;2023-05-25T06:12:05;99183.22;;;11.96;69.89
40117;BME280;25829;50.228;18.936;2023-05-25T06:18:26;99193.38;;;11.93;69.70
40117;BME280;25829;50.228;18.936;2023-05-25T06:21:33;99208.63;;;11.91;69.61
40117;BME280;25829;50.228;18.936;2023-05-25T06:24:34;99196.22;;;11.91;69.81
40117;BME280;25829;50.228;18.936;2023-05-25T06:28:01;99205.78;;;11.92;69.67
40117;BME280;25829;50.228;18.936;2023-05-25T06:31:02;99203.31;;;11.91;69.96
40117;BME280;25829;50.228;18.936;2023-05-25T06:34:03;99208.63;;;11.91;69.96
40117;BME280;25829;50.228;18.936;2023-05-25T06:37:04;99207.00;;;11.90;69.77
40117;BME280;25829;50.228;18.936;2023-05-25T06:40:05;99207.38;;;11.87;69.85
40117;BME280;25829;50.228;18.936;2023-05-25T06:43:09;99213.91;;;11.84;69.93
40117;BME280;25829;50.228;18.936;2023-05-25T06:46:31;99211.44;;;11.83;69.54
40117;BME280;25829;50.228;18.936;2023-05-25T06:49:33;99215.09;;;11.82;69.93
40117;BME280;25829;50.228;18.936;2023-05-25T06:52:34;99215.50;;;11.78;69.38
40117;BME280;25829;50.228;18.936;2023-05-25T06:55:37;99217.09;;;11.73;69.72
40117;BME280;25829;50.228;18.936;2023-05-25T06:58:41;99217.47;;;11.70;69.79
40117;BME280;25829;50.228;18.936;2023-05-25T07:01:42;99224.56;;;11.63;69.93
40117;BME280;25829;50.228;18.936;2023-05-25T07:08:20;99224.19;;;11.72;70.28
40117;BME280;25829;50.228;18.936;2023-05-25T07:11:21;99224.06;;;11.81;70.15
40117;BME280;25829;50.228;18.936;2023-05-25T07:14:22;99231.78;;;11.82;69.99
40117;BME280;25829;50.228;18.936;2023-05-25T07:17:23;99221.19;;;11.82;69.87
40117;BME280;25829;50.228;18.936;2023-05-25T07:20:24;99226.69;;;11.87;69.91
40117;BME280;25829;50.228;18.936;2023-05-25T07:23:32;99235.06;;;11.91;69.78
40117;BME280;25829;50.228;18.936;2023-05-25T07:30:09;99234.91;;;11.99;69.78
40117;BME280;25829;50.228;18.936;2023-05-25T07:33:14;99238.34;;;11.99;69.82
40117;BME280;25829;50.228;18.936;2023-05-25T07:36:15;99238.19;;;12.01;69.82
40117;BME280;25829;50.228;18.936;2023-05-25T07:39:16;99248.38;;;12.04;69.58
40117;BME280;25829;50.228;18.936;2023-05-25T07:42:16;99237.59;;;12.06;69.74
40117;BME280;25829;50.228;18.936;2023-05-25T07:45:23;99240.25;;;12.06;69.67
40117;BME280;25829;50.228;18.936;2023-05-25T07:48:24;99244.50;;;12.07;69.47
40117;BME280;25829;50.228;18.936;2023-05-25T07:51:28;99252.69;;;12.12;69.26
40117;BME280;25829;50.228;18.936;2023-05-25T07:54:28;99249.81;;;12.07;68.73
40117;BME280;25829;50.228;18.936;2023-05-25T07:57:29;99247.50;;;11.97;69.18
40117;BME280;25829;50.228;18.936;2023-05-25T08:00:30;99248.50;;;11.96;69.56
40117;BME280;25829;50.228;18.936;2023-05-25T08:03:31;99247.56;;;12.04;69.54
40117;BME280;25829;50.228;18.936;2023-05-25T08:06:32;99249.41;;;12.10;69.23
40117;BME280;25829;50.228;18.936;2023-05-25T08:09:33;99245.53;;;12.06;69.32
40117;BME280;25829;50.228;18.936;2023-05-25T08:12:34;99251.63;;;12.06;69.22
40117;BME280;25829;50.228;18.936;2023-05-25T08:15:35;99253.50;;;12.12;69.47
40117;BME280;25829;50.228;18.936;2023-05-25T08:18:37;99241.72;;;12.21;69.62
40117;BME280;25829;50.228;18.936;2023-05-25T08:21:40;99242.34;;;12.23;69.66
40117;BME280;25829;50.228;18.936;2023-05-25T08:24:40;99237.69;;;12.26;69.76
40117;BME280;25829;50.228;18.936;2023-05-25T08:27:41;99245.81;;;12.31;69.69
40117;BME280;25829;50.228;18.936;2023-05-25T08:30:44;99244.63;;;12.33;69.49
40117;BME280;25829;50.228;18.936;2023-05-25T08:33:45;99249.69;;;12.35;69.53
40117;BME280;25829;50.228;18.936;2023-05-25T08:36:45;99242.97;;;12.39;69.49
40117;BME280;25829;50.228;18.936;2023-05-25T08:39:46;99244.22;;;12.43;69.47
40117;BME280;25829;50.228;18.936;2023-05-25T08:42:47;99254.22;;;12.47;69.45
40117;BME280;25829;50.228;18.936;2023-05-25T08:45:48;99256.47;;;12.51;69.29
40117;BME280;25829;50.228;18.936;2023-05-25T08:48:50;99251.97;;;12.51;69.23
40117;BME280;25829;50.228;18.936;2023-05-25T08:51:57;99252.16;;;12.49;69.52
40117;BME280;25829;50.228;18.936;2023-05-25T08:55:00;99257.03;;;12.46;69.30
40117;BME280;25829;50.228;18.936;2023-05-25T08:58:13;99253.97;;;12.42;69.46
40117;BME280;25829;50.228;18.936;2023-05-25T09:01:17;99256.03;;;12.40;69.28
40117;BME280;25829;50.228;18.936;2023-05-25T09:04:19;99251.97;;;12.44;69.33
40117;BME280;25829;50.228;18.936;2023-05-25T09:07:21;99254.19;;;12.41;69.23
40117;BME280;25829;50.228;18.936;2023-05-25T09:10:24;99250.75;;;12.40;69.49
40117;BME280;25829;50.228;18.936;2023-05-25T09:13:30;99256.22;;;12.39;69.70
40117;BME280;25829;50.228;18.936;2023-05-25T09:16:36;99255.63;;;12.43;69.88
40117;BME280;25829;50.228;18.936;2023-05-25T09:19:40;99247.09;;;12.48;69.80
40117;BME280;25829;50.228;18.936;2023-05-25T09:22:41;99255.03;;;12.55;69.30
40117;BME280;25829;50.228;18.936;2023-05-25T09:25:43;99248.31;;;12.59;69.32
40117;BME280;25829;50.228;18.936;2023-05-25T09:28:46;99260.34;;;12.68;69.20
40117;BME280;25829;50.228;18.936;2023-05-25T09:31:47;99258.13;;;12.78;69.32
40117;BME280;25829;50.228;18.936;2023-05-25T09:34:48;99252.63;;;12.86;69.11
40117;BME280;25829;50.228;18.936;2023-05-25T09:37:52;99253.44;;;12.93;68.84
40117;BME280;25829;50.228;18.936;2023-05-25T09:40:56;99261.22;;;12.95;68.85
40117;BME280;25829;50.228;18.936;2023-05-25T09:43:56;99255.28;;;13.00;68.52
40117;BME280;25829;50.228;18.936;2023-05-25T09:46:58;99259.78;;;12.99;68.11
40117;BME280;25829;50.228;18.936;2023-05-25T09:49:59;99256.72;;;13.02;68.45
40117;BME280;25829;50.228;18.936;2023-05-25T09:53:03;99253.63;;;13.12;68.04
40117;BME280;25829;50.228;18.936;2023-05-25T09:56:04;99255.72;;;13.23;67.98
40117;BME280;25829;50.228;18.936;2023-05-25T09:59:05;99246.75;;;13.31;67.41
40117;BME280;25829;50.228;18.936;2023-05-25T10:02:09;99254.28;;;13.40;67.38
40117;BME280;25829;50.228;18.936;2023-05-25T10:05:10;99250.19;;;13.45;67.27
40117;BME280;25829;50.228;18.936;2023-05-25T10:08:11;99258.16;;;13.45;67.04
40117;BME280;25829;50.228;18.936;2023-05-25T10:11:20;99254.88;;;13.42;66.93
40117;BME280;25829;50.228;18.936;2023-05-25T10:14:28;99247.31;;;13.46;67.29
40117;BME280;25829;50.228;18.936;2023-05-25T10:17:31;99247.72;;;13.50;67.14
40117;BME280;25829;50.228;18.936;2023-05-25T10:20:37;99250.34;;;13.56;67.09
40117;BME280;25829;50.228;18.936;2023-05-25T10:24:03;99252.81;;;13.64;67.16
40117;BME280;25829;50.228;18.936;2023-05-25T10:27:09;99251.97;;;13.64;66.85
40117;BME280;25829;50.228;18.936;2023-05-25T10:30:13;99250.34;;;13.70;67.01
40117;BME280;25829;50.228;18.936;2023-05-25T10:33:16;99260.75;;;13.71;66.88
40117;BME280;25829;50.228;18.936;2023-05-25T10:36:19;99256.25;;;13.72;66.62
40117;BME280;25829;50.228;18.936;2023-05-25T10:39:24;99258.03;;;13.78;66.52
40117;BME280;25829;50.228;18.936;2023-05-25T10:42:37;99256.81;;;13.80;66.03
40117;BME280;25829;50.228;18.936;2023-05-25T10:45:41;99249.47;;;13.82;66.26
40117;BME280;25829;50.228;18.936;2023-05-25T10:48:46;99246.03;;;13.82;65.56
40117;BME280;25829;50.228;18.936;2023-05-25T10:51:57;99260.91;;;13.76;65.92
40117;BME280;25829;50.228;18.936;2023-05-25T10:55:07;99258.50;;;13.75;65.95
40117;BME280;25829;50.228;18.936;2023-05-25T10:58:12;99262.94;;;13.81;66.27
40117;BME280;25829;50.228;18.936;2023-05-25T11:01:17;99258.88;;;13.85;65.67
40117;BME280;25829;50.228;18.936;2023-05-25T11:04:19;99257.41;;;13.89;66.31
40117;BME280;25829;50.228;18.936;2023-05-25T11:07:20;99256.38;;;13.97;66.24
40117;BME280;25829;50.228;18.936;2023-05-25T11:10:52;99246.16;;;14.00;65.60
40117;BME280;25829;50.228;18.936;2023-05-25T11:14:00;99247.78;;;14.01;65.58
40117;BME280;25829;50.228;18.936;2023-05-25T11:17:19;99241.84;;;14.06;65.77
40117;BME280;25829;50.228;18.936;2023-05-25T11:20:22;99232.44;;;14.10;66.19
40117;BME280;25829;50.228;18.936;2023-05-25T11:23:25;99231.59;;;14.16;65.76
40117;BME280;25829;50.228;18.936;2023-05-25T11:26:29;99240.38;;;14.17;65.63
40117;BME280;25829;50.228;18.936;2023-05-25T11:29:31;99233.63;;;14.14;65.44
40117;BME280;25829;50.228;18.936;2023-05-25T11:32:32;99244.88;;;14.16;65.97
40117;BME280;25829;50.228;18.936;2023-05-25T11:35:34;99237.28;;;14.20;65.61
40117;BME280;25829;50.228;18.936;2023-05-25T11:38:42;99234.41;;;14.21;65.26
40117;BME280;25829;50.228;18.936;2023-05-25T11:42:08;99239.94;;;14.20;65.44
40117;BME280;25829;50.228;18.936;2023-05-25T11:45:15;99235.84;;;14.24;65.30
40117;BME280;25829;50.228;18.936;2023-05-25T11:48:17;99233.00;;;14.25;65.61
40117;BME280;25829;50.228;18.936;2023-05-25T11:51:19;99238.69;;;14.29;65.51
40117;BME280;25829;50.228;18.936;2023-05-25T11:54:22;99230.94;;;14.27;65.50
40117;BME280;25829;50.228;18.936;2023-05-25T11:57:27;99231.13;;;14.32;65.77
40117;BME280;25829;50.228;18.936;2023-05-25T12:03:51;99235.00;;;14.30;65.66
40117;BME280;25829;50.228;18.936;2023-05-25T12:07:03;99224.00;;;14.26;65.75
40117;BME280;25829;50.228;18.936;2023-05-25T12:10:06;99217.69;;;14.27;65.77
40117;BME280;25829;50.228;18.936;2023-05-25T12:13:09;99216.41;;;14.30;66.16
40117;BME280;25829;50.228;18.936;2023-05-25T12:16:12;99217.84;;;14.32;65.87
40117;BME280;25829;50.228;18.936;2023-05-25T12:19:17;99213.34;;;14.33;65.87
40117;BME280;25829;50.228;18.936;2023-05-25T12:22:18;99212.72;;;14.37;65.85
40117;BME280;25829;50.228;18.936;2023-05-25T12:25:27;99216.56;;;14.42;65.82
40117;BME280;25829;50.228;18.936;2023-05-25T12:29:20;99204.34;;;14.41;65.88
40117;BME280;25829;50.228;18.936;2023-05-25T12:32:20;99205.53;;;14.45;65.68
40117;BME280;25829;50.228;18.936;2023-05-25T12:35:22;99200.81;;;14.47;65.86
40117;BME280;25829;50.228;18.936;2023-05-25T12:38:23;99208.34;;;14.50;65.39
40117;BME280;25829;50.228;18.936;2023-05-25T12:41:24;99210.84;;;14.45;65.80
40117;BME280;25829;50.228;18.936;2023-05-25T12:44:29;99206.53;;;14.44;65.74
40117;BME280;25829;50.228;18.936;2023-05-25T12:47:33;99207.16;;;14.46;65.94
40117;BME280;25829;50.228;18.936;2023-05-25T12:50:34;99195.88;;;14.50;65.74
40117;BME280;25829;50.228;18.936;2023-05-25T12:53:51;99202.03;;;14.51;65.45
40117;BME280;25829;50.228;18.936;2023-05-25T12:56:57;99194.88;;;14.51;65.65
40117;BME280;25829;50.228;18.936;2023-05-25T12:59:59;99200.81;;;14.47;65.68
40117;BME280;25829;50.228;18.936;2023-05-25T13:03:04;99192.03;;;14.46;65.87
40117;BME280;25829;50.228;18.936;2023-05-25T13:06:08;99202.25;;;14.43;65.98
40117;BME280;25829;50.228;18.936;2023-05-25T13:09:12;99198.19;;;14.40;66.00
40117;BME280;25829;50.228;18.936;2023-05-25T13:12:16;99210.03;;;14.44;66.19
40117;BME280;25829;50.228;18.936;2023-05-25T13:15:20;99201.84;;;14.46;66.03
40117;BME280;25829;50.228;18.936;2023-05-25T13:18:22;99203.47;;;14.47;66.31
40117;BME280;25829;50.228;18.936;2023-05-25T13:21:23;99193.69;;;14.47;66.07
40117;BME280;25829;50.228;18.936;2023-05-25T13:24:24;99195.06;;;14.50;66.10
40117;BME280;25829;50.228;18.936;2023-05-25T13:27:31;99189.13;;;14.54;66.22
40117;BME280;25829;50.228;18.936;2023-05-25T13:30:32;99183.22;;;14.52;66.34
40117;BME280;25829;50.228;18.936;2023-05-25T13:33:33;99190.13;;;14.53;66.44
40117;BME280;25829;50.228;18.936;2023-05-25T13:36:57;99181.97;;;14.55;66.36
40117;BME280;25829;50.228;18.936;2023-05-25T13:40:01;99181.97;;;14.55;66.48
40117;BME280;25829;50.228;18.936;2023-05-25T13:43:01;99175.25;;;14.52;66.38
40117;BME280;25829;50.228;18.936;2023-05-25T13:46:02;99184.63;;;14.55;66.55
40117;BME280;25829;50.228;18.936;2023-05-25T13:49:03;99180.31;;;14.54;66.39
40117;BME280;25829;50.228;18.936;2023-05-25T13:52:04;99181.59;;;14.51;66.42
40117;BME280;25829;50.228;18.936;2023-05-25T13:55:05;99182.22;;;14.47;66.25
40117;BME280;25829;50.228;18.936;2023-05-25T13:58:09;99176.53;;;14.43;66.13
40117;BME280;25829;50.228;18.936;2023-05-25T14:01:13;99183.63;;;14.49;66.27
40117;BME280;25829;50.228;18.936;2023-05-25T14:04:14;99174.81;;;14.55;66.35
40117;BME280;25829;50.228;18.936;2023-05-25T14:07:15;99181.53;;;14.58;66.22
40117;BME280;25829;50.228;18.936;2023-05-25T14:10:20;99177.63;;;14.60;66.27
40117;BME280;25829;50.228;18.936;2023-05-25T14:13:21;99182.13;;;14.60;66.44
40117;BME280;25829;50.228;18.936;2023-05-25T14:16:21;99178.84;;;14.65;66.46
40117;BME280;25829;50.228;18.936;2023-05-25T14:19:28;99174.47;;;14.70;66.28
40117;BME280;25829;50.228;18.936;2023-05-25T14:22:29;99162.25;;;14.69;66.35
40117;BME280;25829;50.228;18.936;2023-05-25T14:25:30;99167.13;;;14.72;66.28
40117;BME280;25829;50.228;18.936;2023-05-25T14:28:31;99166.91;;;14.74;66.34
40117;BME280;25829;50.228;18.936;2023-05-25T14:31:32;99164.03;;;14.75;66.37
40117;BME280;25829;50.228;18.936;2023-05-25T14:34:32;99163.66;;;14.72;66.36
40117;BME280;25829;50.228;18.936;2023-05-25T14:37:33;99152.38;;;14.76;66.55
40117;BME280;25829;50.228;18.936;2023-05-25T14:40:34;99164.00;;;14.82;66.55
40117;BME280;25829;50.228;18.936;2023-05-25T14:43:35;99165.38;;;14.84;66.28
40117;BME280;25829;50.228;18.936;2023-05-25T14:46:36;99165.59;;;14.83;66.14
40117;BME280;25829;50.228;18.936;2023-05-25T14:49:36;99169.50;;;14.80;66.05
40117;BME280;25829;50.228;18.936;2023-05-25T14:52:37;99164.03;;;14.75;66.10
40117;BME280;25829;50.228;18.936;2023-05-25T14:55:38;99166.47;;;14.77;66.18
40117;BME280;25829;50.228;18.936;2023-05-25T14:58:40;99156.88;;;14.76;66.48
40117;BME280;25829;50.228;18.936;2023-05-25T15:01:42;99163.81;;;14.77;66.24
40117;BME280;25829;50.228;18.936;2023-05-25T15:04:45;99162.81;;;14.71;66.46
40117;BME280;25829;50.228;18.936;2023-05-25T15:07:49;99154.47;;;14.68;66.60
40117;BME280;25829;50.228;18.936;2023-05-25T15:10:59;99158.78;;;14.69;66.93
40117;BME280;25829;50.228;18.936;2023-05-25T15:14:05;99159.59;;;14.69;67.03
40117;BME280;25829;50.228;18.936;2023-05-25T15:17:07;99159.16;;;14.72;67.06
40117;BME280;25829;50.228;18.936;2023-05-25T15:20:27;99156.88;;;14.76;66.99
40117;BME280;25829;50.228;18.936;2023-05-25T15:27:02;99151.78;;;14.74;66.47
40117;BME280;25829;50.228;18.936;2023-05-25T15:30:09;99150.38;;;14.72;66.67
40117;BME280;25829;50.228;18.936;2023-05-25T15:33:16;99140.56;;;14.72;66.80
40117;BME280;25829;50.228;18.936;2023-05-25T15:36:20;99143.00;;;14.74;66.82
40117;BME280;25829;50.228;18.936;2023-05-25T15:39:23;99147.88;;;14.77;66.95
40117;BME280;25829;50.228;18.936;2023-05-25T15:42:24;99148.47;;;14.79;66.76
40117;BME280;25829;50.228;18.936;2023-05-25T15:45:25;99141.31;;;14.79;67.04
40117;BME280;25829;50.228;18.936;2023-05-25T15:48:31;99146.63;;;14.79;66.64
40117;BME280;25829;50.228;18.936;2023-05-25T15:51:32;99137.47;;;14.75;66.53
40117;BME280;25829;50.228;18.936;2023-05-25T15:54:33;99147.50;;;14.73;66.54
40117;BME280;25829;50.228;18.936;2023-05-25T15:57:34;99144.03;;;14.73;66.72
40117;BME280;25829;50.228;18.936;2023-05-25T16:00:34;99144.03;;;14.73;66.53
40117;BME280;25829;50.228;18.936;2023-05-25T16:03:35;99144.03;;;14.73;66.54
40117;BME280;25829;50.228;18.936;2023-05-25T16:06:36;99146.97;;;14.65;66.30
40117;BME280;25829;50.228;18.936;2023-05-25T16:09:37;99139.22;;;14.63;66.59
40117;BME280;25829;50.228;18.936;2023-05-25T16:12:44;99139.59;;;14.67;66.63
40117;BME280;25829;50.228;18.936;2023-05-25T16:15:48;99145.06;;;14.72;66.69
40117;BME280;25829;50.228;18.936;2023-05-25T16:18:51;99137.47;;;14.75;66.79
40117;BME280;25829;50.228;18.936;2023-05-25T16:21:52;99130.31;;;14.76;66.75
40117;BME280;25829;50.228;18.936;2023-05-25T16:24:56;99132.91;;;14.82;66.90
40117;BME280;25829;50.228;18.936;2023-05-25T16:28:01;99127.97;;;14.86;67.15
40117;BME280;25829;50.228;18.936;2023-05-25T16:31:02;99134.25;;;14.92;67.07